createdAt,value
2022-09-07T00:02:25.149Z,2.70
2022-09-07T00:04:52.006Z,2.45
2022-09-07T00:07:19.143Z,3.40
2022-09-07T00:09:45.892Z,3.45
2022-09-07T00:12:12.571Z,3.25
2022-09-07T00:14:39.288Z,2.80
2022-09-07T00:17:06.028Z,3.35
2022-09-07T00:19:32.653Z,3.40
2022-09-07T00:21:59.397Z,2.72
2022-09-07T00:24:26.119Z,2.60
2022-09-07T00:26:55.541Z,2.53
2022-09-07T00:29:22.772Z,2.33
2022-09-07T00:31:49.521Z,2.75
2022-09-07T00:34:16.149Z,5.82
2022-09-07T00:36:43.276Z,3.15
2022-09-07T00:39:09.937Z,3.10
2022-09-07T00:41:36.645Z,3.20
2022-09-07T00:44:40.775Z,2.67
2022-09-07T00:47:10.761Z,2.88
2022-09-07T00:49:39.485Z,2.30
2022-09-07T00:52:08.183Z,3.10
2022-09-07T00:54:43.716Z,3.60
2022-09-07T00:57:10.986Z,2.28
2022-09-07T00:59:47.205Z,2.58
2022-09-07T01:02:17.368Z,2.47
2022-09-07T01:04:48.487Z,2.80
2022-09-07T01:07:15.245Z,3.05
2022-09-07T01:09:43.023Z,3.22
2022-09-07T01:12:09.664Z,2.33
2022-09-07T01:14:42.901Z,3.35
2022-09-07T01:17:30.857Z,2.97
2022-09-07T01:20:09.325Z,3.28
2022-09-07T01:23:00.817Z,2.78
2022-09-07T01:25:39.427Z,2.65
2022-09-07T01:28:22.736Z,2.65
2022-09-07T01:31:01.716Z,4.60
2022-09-07T01:33:37.340Z,2.55
2022-09-07T01:36:42.523Z,2.60
2022-09-07T01:39:09.483Z,3.25
2022-09-07T01:41:43.499Z,3.00
2022-09-07T01:44:15.031Z,2.88
2022-09-07T01:46:53.041Z,3.75
2022-09-07T01:49:45.989Z,2.58
2022-09-07T01:52:25.957Z,2.70
2022-09-07T01:55:02.544Z,3.13
2022-09-07T01:57:38.311Z,2.70
2022-09-07T02:00:12.564Z,3.25
2022-09-07T02:02:54.354Z,3.70
2022-09-07T02:08:26.302Z,2.60
2022-09-07T02:11:02.261Z,3.08
2022-09-07T02:13:49.296Z,3.65
2022-09-07T02:16:23.873Z,3.90
2022-09-07T02:18:58.816Z,3.80
2022-09-07T02:21:34.812Z,3.35
2022-09-07T02:24:17.855Z,3.28
2022-09-07T02:26:49.110Z,4.05
2022-09-07T02:29:15.911Z,4.00
2022-09-07T02:31:42.932Z,3.75
2022-09-07T02:34:10.320Z,4.05
2022-09-07T02:36:44.407Z,4.75
2022-09-07T02:39:11.198Z,3.47
2022-09-07T02:41:40.955Z,3.38
2022-09-07T02:44:19.306Z,3.72
2022-09-07T02:46:57.156Z,3.60
2022-09-07T02:49:26.625Z,4.07
2022-09-07T02:52:19.374Z,3.65
2022-09-07T02:55:07.877Z,3.67
2022-09-07T02:58:02.469Z,4.45
2022-09-07T03:00:34.748Z,3.75
2022-09-07T03:03:20.764Z,3.50
2022-09-07T03:06:01.119Z,4.22
2022-09-07T03:08:39.709Z,4.57
2022-09-07T03:11:07.468Z,3.92
2022-09-07T03:16:02.210Z,4.07
2022-09-07T03:18:29.255Z,3.47
2022-09-07T03:20:55.941Z,3.95
2022-09-07T03:23:22.976Z,4.38
2022-09-07T03:25:49.753Z,4.65
2022-09-07T03:28:19.225Z,4.53
2022-09-07T03:30:47.417Z,4.85
2022-09-07T03:33:17.804Z,4.13
2022-09-07T03:38:14.216Z,3.83
2022-09-07T03:40:40.869Z,5.35
2022-09-07T03:43:07.645Z,4.30
2022-09-07T03:45:34.305Z,4.97
2022-09-07T03:48:00.944Z,5.05
2022-09-07T03:50:29.080Z,4.47
2022-09-07T03:52:55.600Z,3.90
2022-09-07T03:55:22.301Z,3.67
2022-09-07T03:57:48.949Z,4.47
2022-09-07T04:00:16.095Z,4.07
2022-09-07T04:02:42.702Z,4.05
2022-09-07T04:05:09.768Z,4.85
2022-09-07T04:07:36.551Z,3.95
2022-09-07T04:10:03.556Z,4.40
2022-09-07T04:12:30.173Z,4.18
2022-09-07T04:14:58.410Z,4.75
2022-09-07T04:17:25.020Z,4.55
2022-09-07T04:19:52.301Z,5.13
2022-09-07T04:22:18.853Z,4.57
2022-09-07T04:24:45.566Z,4.32
2022-09-07T04:27:12.828Z,5.40
2022-09-07T04:29:39.389Z,5.45
2022-09-07T04:32:05.960Z,4.57
2022-09-07T04:34:32.649Z,4.95
2022-09-07T04:36:59.218Z,4.13
2022-09-07T04:39:25.875Z,5.25
2022-09-07T04:41:53.067Z,5.03
2022-09-07T04:44:19.721Z,4.40
2022-09-07T04:46:46.344Z,5.13
2022-09-07T04:49:13.662Z,5.07
2022-09-07T04:51:42.534Z,4.55
2022-09-07T04:54:10.271Z,5.20
2022-09-07T04:56:36.872Z,4.60
2022-09-07T04:59:04.568Z,5.20
2022-09-07T05:01:31.505Z,4.50
2022-09-07T05:04:04.136Z,5.35
2022-09-07T05:06:30.908Z,5.03
2022-09-07T05:08:58.621Z,5.75
2022-09-07T05:11:29.432Z,4.80
2022-09-07T05:14:00.678Z,4.53
2022-09-07T05:16:28.493Z,6.03
2022-09-07T05:18:58.059Z,4.72
2022-09-07T05:21:27.461Z,5.38
2022-09-07T05:23:55.925Z,5.78
2022-09-07T05:26:24.284Z,5.53
2022-09-07T05:28:51.026Z,5.95
2022-09-07T05:31:20.622Z,5.65
2022-09-07T05:36:39.471Z,6.77
2022-09-07T05:39:07.580Z,5.15
2022-09-07T05:41:34.399Z,6.15
2022-09-07T05:46:47.675Z,5.53
2022-09-07T05:49:14.208Z,6.03
2022-09-07T05:51:41.143Z,5.85
2022-09-07T05:54:07.829Z,6.43
2022-09-07T05:56:36.279Z,5.97
2022-09-07T05:59:03.971Z,6.15
2022-09-07T06:01:31.501Z,5.90
2022-09-07T06:03:58.112Z,6.38
2022-09-07T06:06:24.788Z,5.57
2022-09-07T06:08:53.650Z,5.88
2022-09-07T06:11:24.715Z,6.45
2022-09-07T06:13:52.075Z,6.57
2022-09-07T06:16:19.696Z,6.45
2022-09-07T06:18:48.863Z,6.25
2022-09-07T06:21:19.616Z,6.05
2022-09-07T06:23:47.348Z,6.18
2022-09-07T06:26:16.640Z,5.95
2022-09-07T06:28:49.220Z,6.45
2022-09-07T06:31:19.114Z,6.53
2022-09-07T06:33:47.712Z,4.90
2022-09-07T06:36:22.985Z,7.55
2022-09-07T06:38:51.167Z,7.88
2022-09-07T06:44:07.321Z,7.20
2022-09-07T06:49:20.724Z,6.65
2022-09-07T06:51:47.492Z,7.45
2022-09-07T06:57:07.960Z,6.32
2022-09-07T06:59:35.377Z,6.43
2022-09-07T07:02:02.210Z,6.80
2022-09-07T07:04:28.876Z,6.95
2022-09-07T07:06:55.686Z,7.18
2022-09-07T07:09:22.394Z,6.97
2022-09-07T07:11:49.181Z,7.13
2022-09-07T07:14:16.408Z,6.35
2022-09-07T07:16:44.957Z,6.93
2022-09-07T07:19:11.874Z,6.65
2022-09-07T07:22:03.414Z,6.47
2022-09-07T07:24:25.179Z,6.28
2022-09-07T07:26:51.886Z,6.82
2022-09-07T07:29:18.937Z,7.90
2022-09-07T07:31:47.131Z,7.53
2022-09-07T07:34:15.146Z,6.93
2022-09-07T07:36:41.828Z,7.25
2022-09-07T07:41:58.637Z,5.95
2022-09-07T07:44:28.378Z,7.35
2022-09-07T07:46:55.660Z,6.95
2022-09-07T07:49:22.388Z,7.85
2022-09-07T07:54:37.256Z,7.35
2022-09-07T07:57:05.793Z,7.20
2022-09-07T07:59:32.655Z,6.97
2022-09-07T08:02:04.393Z,6.75
2022-09-07T08:04:35.103Z,8.02
2022-09-07T08:07:08.672Z,5.95
2022-09-07T08:09:37.279Z,7.07
2022-09-07T08:12:04.001Z,6.82
2022-09-07T08:14:30.613Z,7.68
2022-09-07T08:16:57.309Z,6.20
2022-09-07T08:19:23.899Z,7.68
2022-09-07T08:24:03.816Z,6.45
2022-09-07T08:26:30.549Z,7.57
2022-09-07T08:28:57.183Z,8.13
2022-09-07T08:31:23.762Z,7.07
2022-09-07T08:33:50.320Z,7.72
2022-09-07T08:36:19.777Z,7.38
2022-09-07T08:38:47.500Z,8.07
2022-09-07T08:41:49.712Z,6.80
2022-09-07T08:44:34.890Z,6.78
2022-09-07T08:47:19.933Z,6.43
2022-09-07T08:49:49.977Z,5.50
2022-09-07T08:52:21.603Z,6.25
2022-09-07T08:55:00.756Z,6.82
2022-09-07T08:57:31.183Z,7.40
2022-09-07T09:00:14.121Z,6.47
2022-09-07T09:05:53.568Z,6.63
2022-09-07T09:06:11.037Z,6.97
2022-09-07T09:08:32.626Z,6.30
2022-09-07T09:11:10.001Z,6.72
2022-09-07T09:14:13.627Z,6.45
2022-09-07T09:16:48.255Z,6.32
2022-09-07T09:19:42.507Z,6.82
2022-09-07T09:22:17.679Z,6.03
2022-09-07T09:24:49.019Z,7.35
2022-09-07T09:27:16.352Z,7.93
2022-09-07T09:29:42.945Z,6.45
2022-09-07T09:32:31.711Z,5.95
2022-09-07T09:35:13.788Z,5.72
2022-09-07T09:40:20.323Z,5.63
2022-09-07T09:42:47.269Z,5.93
2022-09-07T09:45:21.311Z,7.43
2022-09-07T09:47:50.845Z,6.20
2022-09-07T09:53:43.173Z,6.47
2022-09-07T09:56:11.014Z,5.37
2022-09-07T10:01:35.133Z,5.20
2022-09-07T10:04:37.989Z,5.38
2022-09-07T10:07:28.216Z,5.85
2022-09-07T10:09:56.377Z,5.38
2022-09-07T10:12:33.387Z,5.20
2022-09-07T10:15:07.919Z,5.72
2022-09-07T10:17:38.668Z,5.28
2022-09-07T10:20:17.835Z,5.80
2022-09-07T10:22:51.345Z,4.45
2022-09-07T10:25:37.569Z,5.65
2022-09-07T10:28:11.368Z,5.72
2022-09-07T10:30:59.061Z,4.80
2022-09-07T10:36:59.966Z,5.40
2022-09-07T10:39:34.772Z,5.50
2022-09-07T10:42:26.328Z,4.18
2022-09-07T10:44:52.883Z,4.63
2022-09-07T10:47:35.035Z,5.25
2022-09-07T10:50:26.379Z,5.03
2022-09-07T10:53:39.137Z,4.90
2022-09-07T10:56:12.660Z,5.43
2022-09-07T10:59:08.635Z,5.53
2022-09-07T11:01:54.550Z,4.80
2022-09-07T11:04:31.367Z,5.20
2022-09-07T11:07:16.232Z,5.45
2022-09-07T11:09:58.648Z,4.38
2022-09-07T11:12:30.764Z,5.10
2022-09-07T11:15:03.373Z,4.78
2022-09-07T11:17:30.828Z,5.30
2022-09-07T11:20:24.410Z,5.85
2022-09-07T11:23:13.077Z,5.55
2022-09-07T11:26:01.476Z,4.80
2022-09-07T11:29:29.228Z,5.15
2022-09-07T11:31:47.680Z,5.18
2022-09-07T11:34:24.145Z,5.13
2022-09-07T11:36:58.742Z,5.07
2022-09-07T11:39:30.800Z,4.82
2022-09-07T11:45:22.908Z,4.68
2022-09-07T11:47:57.665Z,4.20
2022-09-07T11:50:24.440Z,4.45
2022-09-07T11:53:00.602Z,4.45
2022-09-07T11:55:32.861Z,4.25
2022-09-07T11:58:26.701Z,5.45
2022-09-07T12:01:21.732Z,5.20
2022-09-07T12:04:15.414Z,5.00
2022-09-07T12:07:05.981Z,5.78
2022-09-07T12:10:00.775Z,5.07
2022-09-07T12:13:04.981Z,5.07
2022-09-07T12:15:49.967Z,4.70
2022-09-07T12:18:50.803Z,4.47
2022-09-07T12:21:37.061Z,5.15
2022-09-07T12:24:04.200Z,4.88
2022-09-07T12:26:36.424Z,5.13
2022-09-07T12:29:06.241Z,4.97
2022-09-07T12:31:57.355Z,4.57
2022-09-07T12:34:33.817Z,4.75
2022-09-07T12:37:25.757Z,5.25
2022-09-07T12:40:29.551Z,5.07
2022-09-07T12:43:14.351Z,4.90
2022-09-07T12:45:41.617Z,4.95
2022-09-07T12:48:17.425Z,4.70
2022-09-07T12:51:06.137Z,4.85
2022-09-07T12:53:57.887Z,4.95
2022-09-07T12:59:21.997Z,4.72
2022-09-07T13:02:03.170Z,3.92
2022-09-07T13:04:29.822Z,4.67
2022-09-07T13:07:21.024Z,4.00
2022-09-07T13:10:01.215Z,5.13
2022-09-07T13:15:41.516Z,5.10
2022-09-07T13:18:31.871Z,5.40
2022-09-07T13:21:07.325Z,4.75
2022-09-07T13:23:35.805Z,6.68
2022-09-07T13:26:05.148Z,4.60
2022-09-07T13:28:58.304Z,4.57
2022-09-07T13:31:54.484Z,4.80
2022-09-07T13:34:36.574Z,4.85
2022-09-07T13:37:13.337Z,5.47
2022-09-07T13:39:45.220Z,5.00
2022-09-07T13:42:17.763Z,4.80
2022-09-07T13:44:53.550Z,6.13
2022-09-07T13:47:20.585Z,5.80
2022-09-07T13:49:55.899Z,5.47
2022-09-07T13:52:35.464Z,5.55
2022-09-07T13:55:26.108Z,4.95
2022-09-07T13:58:25.073Z,5.32
2022-09-07T14:00:52.952Z,4.93
2022-09-07T14:03:21.233Z,4.85
2022-09-07T14:05:47.867Z,5.35
2022-09-07T14:08:26.365Z,4.68
2022-09-07T14:10:53.189Z,4.88
2022-09-07T14:13:19.736Z,4.70
2022-09-07T14:15:49.045Z,4.45
2022-09-07T14:18:28.925Z,5.35
2022-09-07T14:20:56.576Z,5.38
2022-09-07T14:23:30.511Z,4.88
2022-09-07T14:26:24.937Z,5.25
2022-09-07T14:28:54.505Z,5.78
2022-09-07T14:31:23.531Z,5.47
2022-09-07T14:33:53.629Z,5.35
2022-09-07T14:36:42.329Z,5.15
2022-09-07T14:39:12.544Z,5.70
2022-09-07T14:41:41.328Z,5.72
2022-09-07T14:44:27.445Z,4.75
2022-09-07T14:46:56.702Z,5.85
2022-09-07T14:49:24.227Z,5.05
2022-09-07T14:51:53.636Z,5.72
2022-09-07T14:54:23.508Z,4.70
2022-09-07T14:57:12.025Z,4.75
2022-09-07T14:59:41.217Z,5.07
2022-09-07T15:02:22.054Z,5.05
2022-09-07T15:05:09.808Z,5.50
2022-09-07T15:07:40.340Z,4.97
2022-09-07T15:10:28.729Z,5.38
2022-09-07T15:12:58.471Z,6.15
2022-09-07T15:15:28.265Z,4.93
2022-09-07T15:18:01.820Z,5.70
2022-09-07T15:20:37.089Z,6.05
2022-09-07T15:23:05.509Z,5.13
2022-09-07T15:25:32.607Z,5.13
2022-09-07T15:28:00.025Z,5.07
2022-09-07T15:30:27.344Z,5.55
2022-09-07T15:32:57.306Z,5.97
2022-09-07T15:35:24.717Z,6.38
2022-09-07T15:38:59.431Z,5.57
2022-09-07T15:41:10.602Z,5.75
2022-09-07T15:43:32.949Z,5.70
2022-09-07T15:45:59.674Z,5.85
2022-09-07T15:48:26.472Z,4.72
2022-09-07T15:51:03.470Z,7.35
2022-09-07T15:56:20.130Z,5.22
2022-09-07T15:58:52.072Z,5.60
2022-09-07T16:04:05.439Z,6.43
2022-09-07T16:06:32.462Z,6.05
2022-09-07T16:08:59.401Z,5.95
2022-09-07T16:11:27.224Z,6.63
2022-09-07T16:14:01.785Z,6.07
2022-09-07T16:19:20.499Z,5.78
2022-09-07T16:21:47.571Z,5.40
2022-09-07T16:24:14.145Z,4.95
2022-09-07T16:26:40.704Z,5.20
2022-09-07T16:29:07.915Z,5.82
2022-09-07T16:31:35.063Z,6.28
2022-09-07T16:34:03.258Z,6.03
2022-09-07T16:36:30.674Z,6.05
2022-09-07T16:38:59.693Z,6.18
2022-09-07T16:41:31.744Z,6.82
2022-09-07T16:43:58.929Z,6.60
2022-09-07T16:46:27.835Z,6.72
2022-09-07T16:48:54.685Z,6.78
2022-09-07T16:51:22.735Z,7.10
2022-09-07T16:53:51.612Z,7.00
2022-09-07T16:56:20.499Z,7.13
2022-09-07T16:58:52.558Z,6.35
2022-09-07T17:01:23.143Z,8.30
2022-09-07T17:03:50.740Z,6.95
2022-09-07T17:06:20.284Z,7.45
2022-09-07T17:08:47.456Z,6.55
2022-09-07T17:11:17.237Z,6.43
2022-09-07T17:13:44.620Z,6.28
2022-09-07T17:16:13.975Z,7.35
2022-09-07T17:21:33.176Z,6.53
2022-09-07T17:24:01.689Z,6.07
2022-09-07T17:26:30.448Z,6.82
2022-09-07T17:29:00.397Z,7.13
2022-09-07T17:34:17.830Z,6.47
2022-09-07T17:36:44.498Z,7.13
2022-09-07T17:39:16.285Z,8.60
2022-09-07T17:41:45.115Z,7.80
2022-09-07T17:44:11.903Z,7.97
2022-09-07T17:46:38.857Z,7.65
2022-09-07T17:49:09.546Z,8.15
2022-09-07T17:51:36.305Z,7.50
2022-09-07T17:54:12.652Z,8.70
2022-09-07T17:56:40.923Z,9.40
2022-09-07T18:01:56.956Z,9.85
2022-09-07T18:04:24.003Z,8.55
2022-09-07T18:06:51.075Z,8.98
2022-09-07T18:09:19.539Z,10.60
2022-09-07T18:11:47.564Z,8.63
2022-09-07T18:14:15.204Z,10.02
2022-09-07T18:16:44.176Z,9.75
2022-09-07T18:19:12.343Z,10.63
2022-09-07T18:21:41.903Z,10.40
2022-09-07T18:24:16.834Z,8.88
2022-09-07T18:26:49.520Z,10.40
2022-09-07T18:29:28.173Z,9.95
2022-09-07T18:31:57.142Z,11.55
2022-09-07T18:34:23.792Z,10.27
2022-09-07T18:36:50.714Z,9.93
2022-09-07T18:39:17.246Z,9.48
2022-09-07T18:41:44.140Z,9.02
2022-09-07T18:46:57.491Z,9.93
2022-09-07T18:54:38.864Z,8.73
2022-09-07T18:57:06.680Z,9.40
2022-09-07T18:59:33.798Z,9.05
2022-09-07T19:02:04.375Z,10.30
2022-09-07T19:07:20.889Z,10.05
2022-09-07T19:09:48.335Z,9.48
2022-09-07T19:12:15.643Z,9.50
2022-09-07T19:14:42.379Z,9.38
2022-09-07T19:17:10.960Z,10.07
2022-09-07T19:19:39.938Z,9.50
2022-09-07T19:22:06.735Z,10.05
2022-09-07T19:24:33.510Z,9.43
2022-09-07T19:27:02.597Z,9.80
2022-09-07T19:29:29.357Z,10.02
2022-09-07T19:32:06.636Z,10.57
2022-09-07T19:36:46.493Z,11.05
2022-09-07T19:39:13.105Z,11.73
2022-09-07T19:41:45.017Z,11.23
2022-09-07T19:46:38.146Z,10.15
2022-09-07T19:49:05.601Z,11.57
2022-09-07T19:51:36.608Z,11.07
2022-09-07T19:54:03.486Z,10.45
2022-09-07T19:56:29.985Z,11.63
2022-09-07T19:58:56.959Z,12.07
2022-09-07T20:01:25.352Z,12.70
2022-09-07T20:04:00.889Z,12.18
2022-09-07T20:06:28.077Z,12.73
2022-09-07T20:08:56.477Z,10.73
2022-09-07T20:11:23.122Z,12.48
2022-09-07T20:13:49.616Z,11.93
2022-09-07T20:16:19.088Z,12.65
2022-09-07T20:21:06.353Z,10.50
2022-09-07T20:23:34.381Z,11.75
2022-09-07T20:26:06.193Z,10.00
2022-09-07T20:28:34.406Z,9.88
2022-09-07T20:31:08.218Z,10.45
2022-09-07T20:33:35.850Z,10.10
2022-09-07T20:36:04.274Z,9.95
2022-09-07T20:38:30.820Z,9.82
2022-09-07T20:41:00.715Z,9.85
2022-09-07T20:43:27.517Z,9.40
2022-09-07T20:45:58.186Z,10.60
2022-09-07T20:48:25.100Z,9.48
2022-09-07T20:50:59.187Z,9.85
2022-09-07T20:53:26.696Z,8.40
2022-09-07T20:56:00.780Z,10.88
2022-09-07T20:58:27.800Z,9.27
2022-09-07T21:00:54.471Z,9.55
2022-09-07T21:03:21.560Z,8.63
2022-09-07T21:05:48.517Z,9.07
2022-09-07T21:08:16.764Z,9.48
2022-09-07T21:10:45.641Z,8.70
2022-09-07T21:13:13.473Z,11.30
2022-09-07T21:15:41.699Z,8.95
2022-09-07T21:20:25.704Z,7.57
2022-09-07T21:22:52.402Z,8.13
2022-09-07T21:25:18.885Z,7.85
2022-09-07T21:27:45.495Z,8.65
2022-09-07T21:30:12.519Z,9.25
2022-09-07T21:32:40.347Z,8.32
2022-09-07T21:35:07.748Z,8.00
2022-09-07T21:37:36.507Z,8.38
2022-09-07T21:40:05.752Z,8.30
2022-09-07T21:42:32.926Z,8.95
2022-09-07T21:44:59.615Z,8.15
2022-09-07T21:47:26.252Z,8.48
2022-09-07T21:49:52.835Z,7.25
2022-09-07T21:54:48.768Z,8.25
2022-09-07T21:57:15.776Z,8.18
2022-09-07T22:01:59.288Z,7.40
2022-09-07T22:04:26.285Z,7.65
2022-09-07T22:06:52.777Z,7.78
2022-09-07T22:09:19.368Z,6.95
2022-09-07T22:11:46.367Z,7.63
2022-09-07T22:14:14.372Z,7.00
2022-09-07T22:16:40.913Z,7.68
2022-09-07T22:19:07.748Z,8.25
2022-09-07T22:24:02.983Z,7.10
2022-09-07T22:26:32.321Z,7.00
2022-09-07T22:28:59.344Z,6.00
2022-09-07T22:31:34.251Z,7.07
2022-09-07T22:34:05.606Z,7.60
2022-09-07T22:36:34.987Z,7.30
2022-09-07T22:39:05.687Z,7.25
2022-09-07T22:41:34.379Z,7.45
2022-09-07T22:44:00.952Z,6.97
2022-09-07T22:46:30.207Z,8.15
2022-09-07T22:48:58.560Z,8.15
2022-09-07T22:51:26.625Z,7.63
2022-09-07T22:53:54.288Z,7.38
2022-09-07T22:56:32.591Z,8.18
2022-09-07T23:01:23.483Z,6.78
2022-09-07T23:06:23.535Z,8.13
2022-09-07T23:08:51.297Z,8.43
2022-09-07T23:11:18.129Z,7.55
2022-09-07T23:13:45.069Z,7.75
2022-09-07T23:16:12.197Z,7.25
2022-09-07T23:18:40.817Z,8.05
2022-09-07T23:21:08.347Z,8.32
2022-09-07T23:23:35.049Z,8.35
2022-09-07T23:26:03.587Z,8.40
2022-09-07T23:28:31.018Z,8.43
2022-09-07T23:30:57.970Z,9.00
2022-09-07T23:33:26.196Z,8.77
2022-09-07T23:36:01.274Z,7.57
2022-09-07T23:40:45.132Z,8.57
2022-09-07T23:43:12.701Z,8.02
2022-09-07T23:45:39.568Z,8.40
2022-09-07T23:48:06.160Z,8.43
2022-09-07T23:50:33.679Z,8.55
2022-09-07T23:53:00.525Z,8.10
2022-09-07T23:55:27.023Z,7.97
2022-09-07T23:57:53.669Z,7.75
